Karaftit, Russia
Current Conditions -  °F | °C
As of 8:00 PM on Monday 26 Jan 2015 (Local Time) from UIAA Reporting Station
Few Clouds Few Clouds  
Wind Chill: -11°   Ceiling: Unl
Heat Index:   Visibility: 6mi
Dew Point: -13°   Wind: 7mph
Humidity: 51%   Direction: 200°SSW
Pressure: 30.39"   Gusts: NA
Location:  54.2°N, 111.91°E
Report Text: UIAA 261200Z 20003MPS 9999 FEW200 M17/M25 Q1029 NOSIG RMKQFE713 29450160
Loading
Personal Weather Stations






























Interactive Weather Map New forecast layout! Learn more

10-Day Weather Forecast

Advertisements
Track Severe Weather on mobile